Time;durP1;ratioP1;P1;durP2;ratioP2;P2;SDS_P1;SDS_P2;PMS_P1;PMS_P2;Temp;Humidity;BMP_temperature;BMP_pressure;BME280_temperature;BME280_humidity;BME280_pressure;Samples;Min_cycle;Max_cycle;Signal;HPM_P1;HPM_P2
2022/10/12 00:02:03;;;;;;;21.40;14.63;;;7.20;1.00;;;;;;5054985;28;20250;-84
2022/10/12 00:04:33;;;;;;;24.35;16.02;;;7.20;1.00;;;;;;5049495;28;20233;-85
2022/10/12 00:07:02;;;;;;;24.67;15.80;;;7.20;1.00;;;;;;5053694;28;20234;-89
2022/10/12 00:09:29;;;;;;;23.55;15.52;;;7.20;1.00;;;;;;5050427;28;20236;-88
2022/10/12 00:11:58;;;;;;;21.13;15.18;;;7.20;1.00;;;;;;5054181;28;21103;-88
2022/10/12 00:14:27;;;;;;;22.55;14.90;;;7.20;1.00;;;;;;5056598;28;20320;-87
2022/10/12 00:16:54;;;;;;;19.67;14.30;;;7.10;1.00;;;;;;5072588;28;20220;-87
2022/10/12 00:19:22;;;;;;;18.45;13.30;;;7.20;1.00;;;;;;5072714;28;20237;-86
2022/10/12 00:21:50;;;;;;;24.95;15.20;;;7.20;1.00;;;;;;5072071;28;20294;-86
2022/10/12 00:24:17;;;;;;;22.05;16.05;;;7.20;1.00;;;;;;5070574;28;20233;-87
2022/10/12 00:26:44;;;;;;;21.92;15.57;;;7.20;1.00;;;;;;5071350;28;20228;-86
2022/10/12 00:29:14;;;;;;;21.23;14.75;;;7.30;1.00;;;;;;5072168;28;21074;-87
2022/10/12 00:31:41;;;;;;;20.95;15.05;;;7.20;1.00;;;;;;5071891;28;20319;-87
2022/10/12 00:34:07;;;;;;;24.25;15.18;;;7.20;1.00;;;;;;5071052;28;20305;-83
2022/10/12 00:36:37;;;;;;;22.40;14.80;;;7.10;1.00;;;;;;5070802;28;20339;-86
2022/10/12 00:39:07;;;;;;;21.55;15.63;;;7.10;1.00;;;;;;5072287;28;20295;-86
2022/10/12 00:41:38;;;;;;;21.48;14.13;;;7.10;1.00;;;;;;5071890;28;20322;-89
2022/10/12 00:44:35;;;;;;;19.75;14.70;;;7.10;1.00;;;;;;5073779;28;20237;-88
2022/10/12 00:47:05;;;;;;;22.25;14.65;;;7.00;1.00;;;;;;5071928;28;20248;-88
2022/10/12 00:49:33;;;;;;;20.92;14.40;;;7.00;1.00;;;;;;5069658;28;20236;-88
2022/10/12 00:52:05;;;;;;;28.33;15.23;;;7.00;1.00;;;;;;5073592;28;20267;-87
2022/10/12 00:54:38;;;;;;;20.88;14.57;;;7.00;1.00;;;;;;5063436;28;20271;-87
2022/10/12 00:57:06;;;;;;;26.27;14.95;;;7.00;1.00;;;;;;5065870;28;20272;-87
2022/10/12 00:59:36;;;;;;;24.70;14.98;;;7.00;1.00;;;;;;5073627;28;20240;-85
2022/10/12 01:02:06;;;;;;;21.40;15.90;;;7.00;1.00;;;;;;5073119;28;20241;-86
2022/10/12 01:04:33;;;;;;;19.15;14.02;;;7.00;1.00;;;;;;5075941;28;20246;-81
2022/10/12 01:07:01;;;;;;;21.98;14.40;;;7.00;1.00;;;;;;5063815;28;20284;-84
2022/10/12 01:09:28;;;;;;;23.45;15.20;;;7.00;1.00;;;;;;5073704;28;20312;-87
2022/10/12 01:11:57;;;;;;;21.40;14.88;;;7.00;1.00;;;;;;5072894;28;20240;-88
2022/10/12 01:14:25;;;;;;;21.38;15.88;;;6.90;1.00;;;;;;5072014;28;20317;-87
2022/10/12 01:16:58;;;;;;;25.58;16.08;;;6.90;1.00;;;;;;5058516;28;20215;-83
2022/10/12 01:19:47;;;;;;;21.48;15.05;;;6.90;1.00;;;;;;5054959;28;20241;-87
2022/10/12 01:22:19;;;;;;;24.67;15.65;;;6.80;1.00;;;;;;5053295;28;20237;-89
2022/10/12 01:24:53;;;;;;;19.08;13.57;;;6.80;1.00;;;;;;5041069;28;20245;-85
2022/10/12 01:27:51;;;;;;;18.67;13.07;;;6.70;1.00;;;;;;5051728;28;20264;-87
2022/10/12 01:30:22;;;;;;;18.75;14.07;;;6.60;1.00;;;;;;5052185;28;20237;-84
2022/10/12 01:33:14;;;;;;;24.15;14.70;;;6.60;1.00;;;;;;5037783;28;20233;-84
2022/10/12 01:35:47;;;;;;;21.90;13.57;;;6.50;1.00;;;;;;5053261;28;20341;-87
2022/10/12 01:38:26;;;;;;;24.67;14.35;;;6.60;1.00;;;;;;5052208;28;20244;-86
2022/10/12 01:41:01;;;;;;;23.00;13.93;;;6.60;1.00;;;;;;5052753;28;20255;-86
2022/10/12 01:43:34;;;;;;;21.45;14.38;;;6.60;1.00;;;;;;5052158;28;20236;-86
2022/10/12 01:46:08;;;;;;;21.48;14.88;;;6.70;1.00;;;;;;5046044;28;20236;-88
2022/10/12 01:48:34;;;;;;;21.02;16.13;;;6.70;1.00;;;;;;5051309;28;20289;-89
2022/10/12 01:51:03;;;;;;;21.20;15.50;;;6.70;1.00;;;;;;5053045;28;20332;-86
2022/10/12 01:53:40;;;;;;;24.05;17.45;;;6.70;1.00;;;;;;5053382;28;20342;-83
2022/10/12 01:56:13;;;;;;;21.00;15.27;;;6.60;1.00;;;;;;5050752;28;20236;-84
2022/10/12 01:58:57;;;;;;;21.08;14.10;;;6.60;1.00;;;;;;5052568;28;20240;-85
2022/10/12 02:01:36;;;;;;;19.65;13.88;;;6.60;1.00;;;;;;5052764;28;20237;-84
2022/10/12 02:04:14;;;;;;;20.35;14.85;;;6.50;1.00;;;;;;5053481;28;20251;-87
2022/10/12 02:06:47;;;;;;;19.40;13.95;;;6.50;1.00;;;;;;5029772;28;20237;-83
2022/10/12 02:09:20;;;;;;;23.50;14.65;;;6.50;1.00;;;;;;5055217;28;20929;-89
2022/10/12 02:11:51;;;;;;;22.23;14.00;;;6.50;1.00;;;;;;5049743;28;20245;-89
2022/10/12 02:14:21;;;;;;;26.33;15.52;;;6.40;1.00;;;;;;5050868;28;21036;-85
2022/10/12 02:16:55;;;;;;;23.15;15.45;;;6.40;1.00;;;;;;5073889;28;20246;-88
2022/10/12 02:19:26;;;;;;;21.40;14.75;;;6.40;1.00;;;;;;5074517;28;20241;-87
2022/10/12 02:21:55;;;;;;;19.95;13.50;;;6.30;1.00;;;;;;5072083;28;20235;-90
2022/10/12 02:24:24;;;;;;;19.67;14.00;;;6.30;1.00;;;;;;5077291;28;20220;-88
2022/10/12 02:26:54;;;;;;;23.65;15.18;;;6.30;1.00;;;;;;5084163;28;20290;-87
2022/10/12 02:29:34;;;;;;;22.00;14.35;;;6.30;1.00;;;;;;5082130;28;20237;-87
2022/10/12 02:32:13;;;;;;;26.88;15.07;;;6.30;1.00;;;;;;5060807;28;20270;-79
2022/10/12 02:34:45;;;;;;;20.05;13.73;;;6.20;1.00;;;;;;5074186;28;20220;-80
2022/10/12 02:37:26;;;;;;;19.88;13.88;;;6.20;1.00;;;;;;5080332;28;20232;-88
2022/10/12 02:39:55;;;;;;;19.10;12.75;;;6.20;1.00;;;;;;5080418;28;20236;-87
2022/10/12 02:42:40;;;;;;;24.20;14.45;;;6.10;1.00;;;;;;5083707;28;20232;-84
2022/10/12 02:45:13;;;;;;;21.30;14.73;;;6.10;1.00;;;;;;5083989;28;20228;-87
2022/10/12 02:47:46;;;;;;;19.90;13.85;;;6.00;1.00;;;;;;5080524;28;20292;-87
2022/10/12 02:50:23;;;;;;;24.23;14.60;;;6.10;1.00;;;;;;5080100;28;20236;-87
2022/10/12 02:52:54;;;;;;;20.70;14.32;;;6.00;1.00;;;;;;5067696;28;20615;-78
2022/10/12 02:55:24;;;;;;;23.75;15.73;;;5.90;1.00;;;;;;5078286;28;20225;-79
2022/10/12 02:57:53;;;;;;;21.63;15.65;;;5.80;1.00;;;;;;5069091;28;20237;-80
2022/10/12 03:00:20;;;;;;;23.30;14.65;;;5.80;1.00;;;;;;5069535;28;20239;-79
2022/10/12 03:02:49;;;;;;;20.80;13.25;;;5.80;1.00;;;;;;5068894;28;20232;-79
2022/10/12 03:05:19;;;;;;;27.58;16.30;;;5.80;1.00;;;;;;5060118;28;21032;-80
2022/10/12 03:07:46;;;;;;;20.30;13.85;;;5.80;1.00;;;;;;5066092;28;20742;-80
2022/10/12 03:10:16;;;;;;;25.75;16.65;;;5.80;1.00;;;;;;5067527;28;20243;-80
2022/10/12 03:12:43;;;;;;;21.70;14.98;;;5.80;1.00;;;;;;5065579;28;20251;-80
2022/10/12 03:15:11;;;;;;;18.73;13.40;;;5.80;1.00;;;;;;5066526;28;20327;-78
2022/10/12 03:17:38;;;;;;;22.10;14.63;;;5.80;1.00;;;;;;5066924;28;20586;-81
2022/10/12 03:20:07;;;;;;;24.40;15.05;;;5.80;1.00;;;;;;5068400;28;20228;-80
2022/10/12 03:22:34;;;;;;;24.92;15.93;;;5.80;1.00;;;;;;5066147;28;20363;-80
2022/10/12 03:25:02;;;;;;;19.30;15.90;;;5.80;1.00;;;;;;5069559;28;20248;-78
2022/10/12 03:27:29;;;;;;;25.13;16.73;;;5.80;1.00;;;;;;5069170;28;21233;-79
2022/10/12 03:29:56;;;;;;;21.65;14.50;;;5.70;1.00;;;;;;5068927;28;20236;-78
2022/10/12 03:32:23;;;;;;;22.75;16.00;;;5.60;1.00;;;;;;5068839;28;20229;-79
2022/10/12 03:34:49;;;;;;;21.25;14.80;;;5.60;1.00;;;;;;5043616;28;20233;-78
2022/10/12 03:37:18;;;;;;;25.77;15.10;;;5.60;1.00;;;;;;5069642;28;20296;-81
2022/10/12 03:39:45;;;;;;;20.52;14.55;;;5.60;1.00;;;;;;5068159;28;20237;-79
2022/10/12 03:42:12;;;;;;;23.42;16.80;;;5.60;1.00;;;;;;5072949;28;20240;-82
2022/10/12 03:44:39;;;;;;;22.67;15.70;;;5.60;1.00;;;;;;5067631;28;20316;-80
2022/10/12 03:47:06;;;;;;;19.58;14.77;;;5.60;1.00;;;;;;5072910;28;20244;-79
2022/10/12 03:49:35;;;;;;;26.00;15.70;;;5.50;1.00;;;;;;5071801;28;20236;-81
2022/10/12 03:52:05;;;;;;;23.55;17.58;;;5.50;1.00;;;;;;5066396;28;20323;-79
2022/10/12 03:54:35;;;;;;;24.70;15.80;;;5.50;1.00;;;;;;5080205;28;20232;-79
2022/10/12 03:57:03;;;;;;;20.98;15.75;;;5.50;1.00;;;;;;5070870;28;20243;-79
2022/10/12 03:59:30;;;;;;;22.77;15.35;;;5.50;1.00;;;;;;5075611;28;20315;-84
2022/10/12 04:02:00;;;;;;;23.15;15.48;;;5.50;1.00;;;;;;5074915;28;20247;-83
2022/10/12 04:04:27;;;;;;;22.98;15.80;;;5.50;1.00;;;;;;5070055;28;21142;-84
2022/10/12 04:06:56;;;;;;;25.73;17.25;;;5.50;1.00;;;;;;5084270;28;20320;-84
2022/10/12 04:09:24;;;;;;;23.58;15.40;;;5.50;1.00;;;;;;5080366;28;20209;-83
2022/10/12 04:12:16;;;;;;;24.48;17.05;;;5.40;1.00;;;;;;5088102;28;20236;-84
2022/10/12 04:14:46;;;;;;;21.05;16.20;;;5.50;1.00;;;;;;5069037;28;20244;-84
2022/10/12 04:17:16;;;;;;;26.20;18.10;;;5.40;1.00;;;;;;5084772;28;20236;-84
2022/10/12 04:19:46;;;;;;;27.80;18.10;;;5.50;1.00;;;;;;5073149;28;20248;-84
2022/10/12 04:25:05;;;;;;;23.40;17.15;;;5.50;1.00;;;;;;5063329;28;20236;-84
2022/10/12 04:27:36;;;;;;;21.10;14.98;;;5.50;1.00;;;;;;5074662;28;20805;-85
2022/10/12 04:30:04;;;;;;;26.60;17.55;;;5.50;1.00;;;;;;5070881;28;20225;-83
2022/10/12 04:32:33;;;;;;;22.85;15.70;;;5.50;1.00;;;;;;5074790;28;20233;-85
2022/10/12 04:35:08;;;;;;;28.30;17.80;;;5.50;1.00;;;;;;5054807;28;20798;-85
2022/10/12 04:37:36;;;;;;;20.17;15.13;;;5.40;1.00;;;;;;5079323;28;20260;-83
2022/10/12 04:40:03;;;;;;;22.20;16.63;;;5.50;1.00;;;;;;5074923;28;21005;-85
2022/10/12 04:42:36;;;;;;;22.73;16.60;;;5.50;1.00;;;;;;5067975;28;20349;-84
2022/10/12 04:45:04;;;;;;;25.73;16.83;;;5.50;1.00;;;;;;5059381;28;21036;-84
2022/10/12 04:47:33;;;;;;;23.55;18.33;;;5.50;1.00;;;;;;5071985;28;20232;-84
2022/10/12 04:50:03;;;;;;;20.50;16.23;;;5.50;1.00;;;;;;5067155;28;21051;-83
2022/10/12 04:52:34;;;;;;;24.23;16.65;;;5.40;1.00;;;;;;5066422;28;20239;-85
2022/10/12 04:55:04;;;;;;;23.17;15.55;;;5.30;1.00;;;;;;5064140;28;20242;-83
2022/10/12 04:57:34;;;;;;;20.48;15.90;;;5.30;1.00;;;;;;5055586;28;21105;-84
2022/10/12 05:03:01;;;;;;;26.23;16.25;;;5.20;1.00;;;;;;5040325;28;20224;-84
2022/10/12 05:05:34;;;;;;;25.08;15.65;;;5.20;1.00;;;;;;5057824;28;20235;-83
2022/10/12 05:08:04;;;;;;;22.83;15.32;;;5.10;1.00;;;;;;5063564;28;20262;-84
2022/10/12 05:10:37;;;;;;;23.48;15.00;;;5.10;1.00;;;;;;5071913;28;20236;-85
2022/10/12 05:13:07;;;;;;;24.77;17.25;;;5.10;1.00;;;;;;5069885;28;20259;-83
2022/10/12 05:15:44;;;;;;;23.80;16.15;;;5.20;1.00;;;;;;5056003;28;20229;-84
2022/10/12 05:18:15;;;;;;;22.45;14.85;;;5.10;1.00;;;;;;5070911;28;20235;-84
2022/10/12 05:20:45;;;;;;;22.95;16.45;;;5.20;1.00;;;;;;5064842;28;20229;-83
2022/10/12 05:23:16;;;;;;;23.00;14.73;;;5.20;1.00;;;;;;5065488;28;20264;-84
2022/10/12 05:25:45;;;;;;;23.02;14.30;;;5.20;1.00;;;;;;5054858;28;20334;-84
2022/10/12 05:28:13;;;;;;;20.88;13.35;;;5.20;1.00;;;;;;5065002;28;20212;-78
2022/10/12 05:30:43;;;;;;;21.23;15.43;;;5.30;1.00;;;;;;5050562;28;20288;-79
2022/10/12 05:33:23;;;;;;;21.95;13.90;;;5.30;1.00;;;;;;5058877;28;20268;-77
2022/10/12 05:35:54;;;;;;;22.20;13.02;;;5.40;1.00;;;;;;5039423;28;20240;-79
2022/10/12 05:38:23;;;;;;;24.17;17.95;;;5.50;1.00;;;;;;5051346;28;20328;-77
2022/10/12 05:40:53;;;;;;;23.67;13.95;;;5.50;1.00;;;;;;5050347;28;20398;-78
2022/10/12 05:43:29;;;;;;;19.58;12.85;;;5.60;1.00;;;;;;5071719;28;20262;-80
2022/10/12 05:45:56;;;;;;;23.75;13.55;;;5.60;1.00;;;;;;5067468;28;20235;-80
2022/10/12 05:48:26;;;;;;;21.40;14.80;;;5.70;1.00;;;;;;5069376;28;20233;-79
2022/10/12 05:50:54;;;;;;;21.25;12.40;;;5.60;1.00;;;;;;5070159;28;20228;-81
2022/10/12 05:53:21;;;;;;;20.67;13.63;;;5.60;1.00;;;;;;5070096;28;20240;-80
2022/10/12 05:55:55;;;;;;;18.02;12.80;;;5.70;1.00;;;;;;5061588;28;20693;-79
2022/10/12 05:58:22;;;;;;;19.25;12.13;;;5.70;1.00;;;;;;5072033;28;20247;-77
2022/10/12 06:00:52;;;;;;;20.52;11.30;;;5.70;1.00;;;;;;5071535;28;20228;-84
2022/10/12 06:03:19;;;;;;;20.77;13.02;;;5.70;1.00;;;;;;5067850;28;20701;-85
2022/10/12 06:05:47;;;;;;;17.38;12.88;;;5.70;1.00;;;;;;5053880;28;20229;-84
2022/10/12 06:08:14;;;;;;;17.85;12.30;;;5.70;1.00;;;;;;5092732;28;21034;-85
2022/10/12 06:10:48;;;;;;;15.95;11.25;;;5.70;1.00;;;;;;5076720;28;20229;-86
2022/10/12 06:13:16;;;;;;;17.20;11.13;;;5.70;1.00;;;;;;5082115;28;21061;-85
2022/10/12 06:15:45;;;;;;;17.45;11.85;;;5.80;1.00;;;;;;5067126;28;20334;-83
2022/10/12 06:18:12;;;;;;;18.13;11.48;;;5.90;1.00;;;;;;5074297;28;21097;-83
2022/10/12 06:20:38;;;;;;;21.67;12.02;;;6.00;1.00;;;;;;5072202;28;20271;-84
2022/10/12 06:23:07;;;;;;;23.60;13.02;;;6.10;1.00;;;;;;5067490;28;20290;-84
2022/10/12 06:25:34;;;;;;;21.02;12.25;;;6.10;1.00;;;;;;5083094;28;20228;-83
2022/10/12 06:28:00;;;;;;;21.80;12.95;;;6.20;1.00;;;;;;5077276;28;20232;-82
2022/10/12 06:30:27;;;;;;;17.85;12.05;;;6.30;1.00;;;;;;5077736;28;20223;-81
2022/10/12 06:32:54;;;;;;;24.05;13.88;;;6.30;1.00;;;;;;5058006;28;20281;-80
2022/10/12 06:35:25;;;;;;;18.45;12.60;;;6.40;1.00;;;;;;5089359;28;20250;-77
2022/10/12 06:38:06;;;;;;;22.35;12.27;;;6.40;1.00;;;;;;5072722;28;20233;-80
2022/10/12 06:40:35;;;;;;;19.90;12.82;;;6.50;1.00;;;;;;5073291;28;20236;-77
2022/10/12 06:43:07;;;;;;;18.67;11.73;;;6.60;1.00;;;;;;5065383;28;20243;-82
2022/10/12 06:45:37;;;;;;;22.92;13.40;;;6.60;1.00;;;;;;5080478;28;20291;-81
2022/10/12 06:48:06;;;;;;;21.02;11.30;;;6.70;1.00;;;;;;5074581;28;20316;-82
2022/10/12 06:50:35;;;;;;;19.40;11.27;;;6.70;1.00;;;;;;5078441;28;20331;-82
2022/10/12 06:53:05;;;;;;;18.92;11.30;;;6.80;1.00;;;;;;5075209;28;20227;-79
2022/10/12 06:55:42;;;;;;;15.80;10.73;;;6.90;1.00;;;;;;5071903;28;20241;-79
2022/10/12 06:58:15;;;;;;;20.40;10.52;;;7.00;1.00;;;;;;5078885;28;20802;-81
2022/10/12 07:00:42;;;;;;;27.58;11.52;;;7.10;1.00;;;;;;5074600;28;20225;-79
2022/10/12 07:03:13;;;;;;;21.17;11.40;;;7.20;1.00;;;;;;5063015;28;20327;-81
2022/10/12 07:05:42;;;;;;;16.83;9.77;;;7.30;1.00;;;;;;5074474;28;20683;-78
2022/10/12 07:08:12;;;;;;;14.35;10.55;;;7.40;1.00;;;;;;5065389;28;20231;-82
2022/10/12 07:10:44;;;;;;;19.70;10.75;;;7.50;1.00;;;;;;5062449;28;21169;-81
2022/10/12 07:13:20;;;;;;;18.60;12.93;;;7.60;1.00;;;;;;5061492;28;20347;-81
2022/10/12 07:15:54;;;;;;;19.00;12.30;;;7.70;1.00;;;;;;5053403;28;20279;-80
2022/10/12 07:18:46;;;;;;;19.92;11.27;;;7.80;1.00;;;;;;5060157;28;20237;-81
2022/10/12 07:21:16;;;;;;;17.13;11.90;;;8.00;1.00;;;;;;5082331;28;20226;-81
2022/10/12 07:23:46;;;;;;;15.43;11.38;;;8.10;1.00;;;;;;5039373;28;20237;-80
2022/10/12 07:26:17;;;;;;;21.27;11.00;;;8.20;1.00;;;;;;5074618;28;20327;-79
2022/10/12 07:28:46;;;;;;;18.50;10.75;;;8.40;1.00;;;;;;5059653;28;20224;-81
2022/10/12 07:31:16;;;;;;;18.30;9.73;;;8.50;1.00;;;;;;5064742;28;20279;-82
2022/10/12 07:33:46;;;;;;;16.40;9.70;;;8.70;1.00;;;;;;5066558;28;20244;-83
2022/10/12 07:36:15;;;;;;;18.52;9.95;;;8.80;1.00;;;;;;5078342;28;20294;-79
2022/10/12 07:38:44;;;;;;;14.50;9.55;;;9.00;1.00;;;;;;5073815;28;20220;-79
2022/10/12 07:41:20;;;;;;;17.02;9.98;;;9.20;1.00;;;;;;5067196;28;20238;-79
2022/10/12 07:43:48;;;;;;;15.20;10.60;;;9.20;1.00;;;;;;5069341;28;20247;-78
2022/10/12 07:46:16;;;;;;;23.33;10.87;;;9.30;1.00;;;;;;5077722;28;20888;-80
2022/10/12 07:48:47;;;;;;;23.77;12.63;;;9.40;1.00;;;;;;5073609;28;21141;-79
2022/10/12 07:51:15;;;;;;;17.13;10.40;;;9.60;1.00;;;;;;5080198;28;20415;-81
2022/10/12 07:54:05;;;;;;;18.83;11.20;;;9.70;1.00;;;;;;5059165;28;20437;-80
2022/10/12 07:56:37;;;;;;;15.67;10.70;;;9.90;1.00;;;;;;5054944;28;20507;-81
2022/10/12 07:59:07;;;;;;;16.53;10.07;;;10.10;1.00;;;;;;5078055;28;20455;-80
2022/10/12 08:01:36;;;;;;;14.50;9.57;;;10.20;1.00;;;;;;5052046;28;20463;-79
2022/10/12 08:04:07;;;;;;;21.70;10.20;;;10.40;1.00;;;;;;5058433;28;20464;-80
2022/10/12 08:06:35;;;;;;;14.13;9.10;;;10.50;1.00;;;;;;5063732;28;20425;-82
2022/10/12 08:09:06;;;;;;;16.03;9.57;;;10.70;1.00;;;;;;5082167;28;20427;-81
2022/10/12 08:11:38;;;;;;;20.83;10.20;;;10.90;1.00;;;;;;5057245;28;20404;-84
2022/10/12 08:14:06;;;;;;;21.63;10.40;;;11.00;1.00;;;;;;5062819;28;20483;-84
2022/10/12 08:16:37;;;;;;;64.17;45.83;;;11.20;1.00;;;;;;5047309;28;20934;-83
2022/10/12 08:19:07;;;;;;;16.73;10.07;;;11.30;1.00;;;;;;4984802;28;20452;-81
2022/10/12 08:21:37;;;;;;;18.67;10.43;;;11.60;1.00;;;;;;4951415;28;20443;-81
2022/10/12 08:24:07;;;;;;;18.03;10.03;;;11.70;1.00;;;;;;4975678;28;20512;-82
2022/10/12 08:26:38;;;;;;;30.00;19.97;;;12.00;1.00;;;;;;4982550;28;20425;-80
2022/10/12 08:29:08;;;;;;;17.63;9.03;;;12.60;1.00;;;;;;4984383;28;21011;-80
2022/10/12 08:31:48;;;;;;;17.70;9.43;;;13.70;1.00;;;;;;5014869;28;20492;-81
2022/10/12 08:34:16;;;;;;;14.07;9.43;;;14.70;1.00;;;;;;5024058;28;20480;-80
2022/10/12 08:36:48;;;;;;;19.10;9.17;;;15.80;1.00;;;;;;5030773;28;20437;-80
2022/10/12 08:39:17;;;;;;;14.03;8.63;;;17.10;1.00;;;;;;5024633;28;20513;-81
2022/10/12 08:41:58;;;;;;;17.70;9.63;;;18.30;1.00;;;;;;5028123;28;20492;-81
2022/10/12 08:44:45;;;;;;;14.50;8.50;;;19.10;1.00;;;;;;5038561;28;20877;-81
2022/10/12 08:47:17;;;;;;;15.57;9.17;;;20.00;1.00;;;;;;5016410;28;20454;-81
2022/10/12 08:49:48;;;;;;;10.00;7.47;;;21.00;1.00;;;;;;5052007;28;20434;-80
2022/10/12 08:52:28;;;;;;;12.90;6.77;;;21.50;1.00;;;;;;5040641;28;20485;-81
2022/10/12 08:55:07;;;;;;;11.37;6.93;;;21.90;1.00;;;;;;5019474;28;20439;-82
2022/10/12 08:57:46;;;;;;;10.70;6.27;;;21.80;1.00;;;;;;5011772;28;20463;-81
2022/10/12 09:00:17;;;;;;;12.23;6.80;;;22.40;1.00;;;;;;5026346;28;20450;-82
2022/10/12 09:03:07;;;;;;;13.53;8.00;;;22.90;1.00;;;;;;5045361;28;20549;-85
2022/10/12 09:05:46;;;;;;;10.10;6.80;;;23.90;1.00;;;;;;5037422;28;20436;-81
2022/10/12 09:08:35;;;;;;;19.10;8.10;;;24.50;1.00;;;;;;5039563;28;20421;-85
2022/10/12 09:11:25;;;;;;;11.67;7.43;;;25.20;1.00;;;;;;5060114;28;20432;-79
2022/10/12 09:14:07;;;;;;;13.63;8.00;;;24.40;1.00;;;;;;5042517;28;20392;-88
2022/10/12 09:16:49;;;;;;;11.03;6.93;;;23.00;1.00;;;;;;5071924;28;20548;-84
2022/10/12 09:19:24;;;;;;;7.93;7.00;;;22.40;1.00;;;;;;5085455;28;20490;-84
2022/10/12 09:21:58;;;;;;;9.47;6.80;;;21.70;1.00;;;;;;5066082;28;20427;-85
2022/10/12 09:24:46;;;;;;;10.20;5.90;;;21.00;1.00;;;;;;5072979;28;20424;-84
2022/10/12 09:27:18;;;;;;;13.87;6.10;;;20.40;1.00;;;;;;5082463;28;20435;-83
2022/10/12 09:29:56;;;;;;;10.20;5.97;;;19.50;1.00;;;;;;5059144;28;20492;-82
2022/10/12 09:32:45;;;;;;;13.10;6.37;;;18.40;1.00;;;;;;5075705;28;20425;-83
2022/10/12 09:35:25;;;;;;;20.03;6.00;;;18.20;1.00;;;;;;5078804;28;20578;-84
2022/10/12 09:37:56;;;;;;;11.70;5.10;;;17.90;1.00;;;;;;5070461;28;20481;-85
2022/10/12 09:40:40;;;;;;;8.20;3.97;;;17.40;1.00;;;;;;5094416;28;20416;-83
2022/10/12 09:43:12;;;;;;;10.93;4.97;;;17.40;1.00;;;;;;5063499;28;20930;-80
2022/10/12 09:45:46;;;;;;;12.17;4.60;;;17.80;1.00;;;;;;5064747;28;20451;-81
2022/10/12 09:48:22;;;;;;;9.57;5.00;;;17.80;1.00;;;;;;5081308;28;20601;-82
2022/10/12 09:50:56;;;;;;;8.13;3.70;;;17.80;1.00;;;;;;5057942;28;20443;-79
2022/10/12 09:53:34;;;;;;;7.77;3.70;;;17.80;1.00;;;;;;5088967;28;20413;-84
2022/10/12 09:56:24;;;;;;;11.40;3.40;;;18.10;1.00;;;;;;5058709;28;21024;-81
2022/10/12 09:58:56;;;;;;;5.20;2.97;;;18.70;1.00;;;;;;5082844;28;20470;-83
2022/10/12 10:01:26;;;;;;;7.90;2.77;;;19.40;1.00;;;;;;5076180;28;20414;-83
2022/10/12 10:04:26;;;;;;;9.93;2.87;;;19.30;1.00;;;;;;5078119;28;20860;-76
2022/10/12 10:06:53;;;;;;;10.33;2.90;;;18.50;1.00;;;;;;5050045;28;20420;-75
2022/10/12 10:09:34;;;;;;;4.87;2.37;;;18.70;1.00;;;;;;5074672;28;20471;-75
2022/10/12 10:12:25;;;;;;;8.33;3.47;;;19.70;1.00;;;;;;5075726;28;20424;-80
2022/10/12 10:15:02;;;;;;;7.10;3.30;;;19.80;1.00;;;;;;5062582;28;20416;-82
2022/10/12 10:17:34;;;;;;;9.20;2.77;;;18.90;1.00;;;;;;5058643;28;20475;-77
2022/10/12 10:20:07;;;;;;;11.40;3.47;;;18.50;1.00;;;;;;5058195;28;20507;-81
2022/10/12 10:22:35;;;;;;;9.40;2.57;;;18.00;1.00;;;;;;5057698;28;20503;-78
2022/10/12 10:25:07;;;;;;;9.87;2.80;;;18.00;1.00;;;;;;5039452;28;20483;-76
2022/10/12 10:27:37;;;;;;;9.30;3.37;;;19.00;1.00;;;;;;5055996;28;20424;-76
2022/10/12 10:30:25;;;;;;;6.30;2.33;;;19.70;1.00;;;;;;5057102;28;20475;-77
2022/10/12 10:33:10;;;;;;;7.40;2.47;;;19.80;1.00;;;;;;5052676;28;20535;-81
2022/10/12 10:35:38;;;;;;;5.07;2.00;;;19.40;1.00;;;;;;5039062;28;20470;-81
2022/10/12 10:38:18;;;;;;;6.80;2.33;;;19.20;1.00;;;;;;5059089;28;20476;-82
2022/10/12 10:40:53;;;;;;;5.73;2.30;;;20.10;1.00;;;;;;5056751;28;20462;-79
2022/10/12 10:43:26;;;;;;;5.30;1.97;;;21.20;1.00;;;;;;5058632;28;20413;-82
2022/10/12 10:46:04;;;;;;;7.23;2.17;;;21.30;1.00;;;;;;5056037;28;20498;-77
2022/10/12 10:48:52;;;;;;;8.53;2.60;;;20.60;1.00;;;;;;5053329;28;20444;-85
2022/10/12 10:51:25;;;;;;;12.07;3.30;;;20.40;1.00;;;;;;5046478;28;20842;-83
2022/10/12 10:54:14;;;;;;;7.27;2.70;;;20.30;1.00;;;;;;5036831;28;20485;-83
2022/10/12 10:56:46;;;;;;;7.50;2.47;;;20.10;1.00;;;;;;5045228;28;20429;-78
2022/10/12 10:59:28;;;;;;;6.23;2.87;;;19.90;1.00;;;;;;5045636;28;20424;-83
2022/10/12 11:01:57;;;;;;;6.13;2.60;;;19.50;1.00;;;;;;5042536;28;21465;-78
2022/10/12 11:04:37;;;;;;;7.43;4.07;;;19.90;1.00;;;;;;5023222;28;20489;-78
2022/10/12 11:07:19;;;;;;;5.90;2.50;;;20.10;1.00;;;;;;5051830;28;20424;-79
2022/10/12 11:09:56;;;;;;;6.50;2.30;;;20.90;1.00;;;;;;5056714;28;20519;-81
2022/10/12 11:12:28;;;;;;;5.10;2.90;;;21.60;1.00;;;;;;5054628;28;20474;-81
2022/10/12 11:14:59;;;;;;;8.87;2.67;;;23.00;1.00;;;;;;5051370;28;20461;-85
2022/10/12 11:17:32;;;;;;;7.13;2.37;;;25.70;1.00;;;;;;5057004;28;20457;-83
2022/10/12 11:20:14;;;;;;;9.03;3.20;;;28.60;1.00;;;;;;5023723;28;20455;-82
2022/10/12 11:22:50;;;;;;;10.13;3.37;;;29.90;1.00;;;;;;5054454;28;20483;-83
2022/10/12 11:25:24;;;;;;;14.20;3.40;;;30.70;1.00;;;;;;5054978;28;20463;-84
2022/10/12 11:27:52;;;;;;;7.63;2.73;;;30.90;1.00;;;;;;5058001;28;20783;-86
2022/10/12 11:30:22;;;;;;;6.77;2.83;;;28.90;1.00;;;;;;5054959;28;20455;-86
2022/10/12 11:32:54;;;;;;;7.67;3.20;;;26.60;1.00;;;;;;5051551;28;20975;-86
2022/10/12 11:35:27;;;;;;;5.00;2.40;;;25.70;1.00;;;;;;5055448;28;20488;-87
2022/10/12 11:37:58;;;;;;;6.27;2.60;;;26.50;1.00;;;;;;5039952;28;21543;-89
2022/10/12 11:40:29;;;;;;;5.60;2.47;;;27.10;1.00;;;;;;5047211;28;21203;-84
2022/10/12 11:42:58;;;;;;;4.80;3.13;;;27.90;1.00;;;;;;5041413;28;20471;-87
2022/10/12 11:45:29;;;;;;;6.90;2.47;;;29.50;1.00;;;;;;5057386;28;20440;-89
2022/10/12 11:48:00;;;;;;;3.97;2.00;;;29.10;1.00;;;;;;5044951;28;20460;-84
2022/10/12 11:50:35;;;;;;;5.87;2.60;;;30.50;1.00;;;;;;5040232;28;20544;-87
2022/10/12 11:53:06;;;;;;;4.40;2.43;;;31.30;1.00;;;;;;5045570;28;20435;-88
2022/10/12 11:58:27;;;;;;;4.40;2.27;;;30.30;1.00;;;;;;5237719;23;20962;-87
2022/10/12 12:01:28;;;;;;;6.13;2.90;;;29.90;1.00;;;;;;5000658;28;20448;-87
2022/10/12 12:04:29;;;;;;;4.33;2.63;;;30.40;1.00;;;;;;5031238;28;20460;-86
2022/10/12 12:06:59;;;;;;;4.40;2.17;;;28.90;1.00;;;;;;5028666;28;20457;-87
2022/10/12 12:09:39;;;;;;;4.40;2.63;;;26.30;1.00;;;;;;5026039;28;20462;-87
2022/10/12 12:12:22;;;;;;;6.00;2.77;;;25.20;1.00;;;;;;5028493;28;20434;-85
2022/10/12 12:15:07;;;;;;;5.87;2.40;;;24.60;1.00;;;;;;5028111;28;20468;-86
2022/10/12 12:17:37;;;;;;;6.03;2.80;;;24.00;1.00;;;;;;5029984;28;20426;-87
2022/10/12 12:20:42;;;;;;;5.10;2.30;;;22.90;1.00;;;;;;5035803;28;20498;-80
2022/10/12 12:23:21;;;;;;;3.97;1.83;;;22.30;1.00;;;;;;5010638;28;20470;-83
2022/10/12 12:26:21;;;;;;;5.17;2.03;;;22.20;1.00;;;;;;5020006;28;20877;-77
2022/10/12 12:28:51;;;;;;;6.60;2.40;;;21.60;1.00;;;;;;5018048;28;20462;-82
2022/10/12 12:31:27;;;;;;;3.10;2.23;;;21.30;1.00;;;;;;5036835;28;20426;-88
2022/10/12 12:34:06;;;;;;;6.73;2.73;;;20.70;1.00;;;;;;5031700;28;20422;-80
2022/10/12 12:36:43;;;;;;;4.40;2.30;;;20.00;1.00;;;;;;5030319;28;21374;-79
2022/10/12 12:39:29;;;;;;;8.53;3.30;;;20.00;1.00;;;;;;5034450;28;20449;-78
2022/10/12 12:42:00;;;;;;;8.17;3.20;;;20.40;1.00;;;;;;5025574;28;20429;-79
2022/10/12 12:44:39;;;;;;;6.90;2.60;;;21.40;1.00;;;;;;5026337;28;20473;-78
2022/10/12 12:47:36;;;;;;;7.30;3.47;;;21.80;1.00;;;;;;5031688;28;20442;-82
2022/10/12 12:50:37;;;;;;;7.40;2.77;;;21.30;1.00;;;;;;5022719;28;20446;-81
2022/10/12 12:53:13;;;;;;;3.77;2.33;;;21.40;1.00;;;;;;5023970;28;20504;-84
2022/10/12 12:56:25;;;;;;;10.87;2.70;;;21.40;1.00;;;;;;5033531;28;20457;-81
2022/10/12 12:59:45;;;;;;;5.07;2.03;;;20.70;1.00;;;;;;5023019;28;20504;-79
2022/10/12 13:02:49;;;;;;;4.97;2.73;;;21.30;1.00;;;;;;5021062;28;20448;-82
2022/10/12 13:05:58;;;;;;;5.50;2.10;;;21.70;1.00;;;;;;5008542;28;20466;-87
2022/10/12 13:08:46;;;;;;;9.70;3.00;;;21.50;1.00;;;;;;5023985;28;20417;-84
2022/10/12 13:11:47;;;;;;;6.10;2.30;;;21.50;1.00;;;;;;5022254;28;20484;-82
2022/10/12 13:14:40;;;;;;;4.60;2.33;;;21.40;1.00;;;;;;5016722;28;20452;-84
2022/10/12 13:17:26;;;;;;;9.00;6.10;;;22.00;1.00;;;;;;5016042;28;20435;-82
2022/10/12 13:20:18;;;;;;;5.83;2.70;;;22.10;1.00;;;;;;5004653;28;20514;-81
2022/10/12 13:22:50;;;;;;;7.83;3.17;;;21.20;1.00;;;;;;5002498;28;20467;-83
2022/10/12 13:25:47;;;;;;;6.67;2.47;;;20.50;1.00;;;;;;5010667;28;21364;-88
2022/10/12 13:28:36;;;;;;;5.57;2.43;;;20.00;1.00;;;;;;5018636;28;20560;-85
2022/10/12 13:31:28;;;;;;;6.20;3.13;;;19.80;1.00;;;;;;4991329;28;20417;-86
2022/10/12 13:34:03;;;;;;;6.27;2.27;;;19.60;1.00;;;;;;5007248;28;20973;-86
2022/10/12 13:36:38;;;;;;;4.80;1.97;;;19.50;1.00;;;;;;5029620;28;20472;-86